Terminal Aerodrome Forecast
Issued by NWS

Home | Current Version | Previous Version | Text Only | Print | Product List | Glossary On
Versions: 1 2 3 4 5 6 7 8 9 10 11 12 13 14 15 16 17 18 19 20 21 22 23 24
000
FTUS42 KGSP 110900 AAA
TAFAND
TAF AMD
KAND 110914Z 1109/1206 00000KT P6SM SCT025 BKN250
      TEMPO 1109/1113 4SM BR BKN035
     FM111300 07005KT P6SM SCT060=

USA.gov is the U.S. government's official web portal to all federal, state and local government web resources and services.